< < Back
Terminal Aerodrome Forecast


Current Version              Previous Versions:   1  2  3  4  5  6  7  8  9  

Terminal Aerodrome Forecast

727
FTUS44 KMOB 221139
TAFMOB
TAF
KMOB 221139Z 2212/2312 03009KT P6SM SCT120
     FM221800 03006KT P6SM SCT250=

Latest METAR

397
SAUS80 KWBC 221400
MTRMOB
METAR KMOB 221356Z 02010KT 10SM FEW019 FEW060 SCT150 18/12 A3020 RMK AO2
SLP223 CB DSNT SW TCU DSNT SW T01780122


USA.gov is the U.S. government's official web portal to all federal, state and local government web resources and services.